sensor_id;sensor_type;location;lat;lon;timestamp;P1;durP1;ratioP1;P2;durP2;ratioP2
9689;SDS011;4884;42.614;23.340;2023-07-16T00:01:49;16.30;;;12.03;;
9689;SDS011;4884;42.614;23.340;2023-07-16T00:04:14;19.97;;;12.47;;
9689;SDS011;4884;42.614;23.340;2023-07-16T00:06:40;15.57;;;12.83;;
9689;SDS011;4884;42.614;23.340;2023-07-16T00:09:05;13.37;;;12.07;;
9689;SDS011;4884;42.614;23.340;2023-07-16T00:11:31;13.23;;;11.90;;
9689;SDS011;4884;42.614;23.340;2023-07-16T00:13:56;16.00;;;14.27;;
9689;SDS011;4884;42.614;23.340;2023-07-16T00:16:21;17.17;;;13.03;;
9689;SDS011;4884;42.614;23.340;2023-07-16T00:18:47;15.67;;;13.13;;
9689;SDS011;4884;42.614;23.340;2023-07-16T00:21:12;18.00;;;14.20;;
9689;SDS011;4884;42.614;23.340;2023-07-16T00:23:38;18.60;;;15.23;;
9689;SDS011;4884;42.614;23.340;2023-07-16T00:26:03;16.13;;;14.43;;
9689;SDS011;4884;42.614;23.340;2023-07-16T00:28:29;16.60;;;14.30;;
9689;SDS011;4884;42.614;23.340;2023-07-16T00:30:54;18.20;;;14.93;;
9689;SDS011;4884;42.614;23.340;2023-07-16T00:33:20;16.83;;;15.20;;
9689;SDS011;4884;42.614;23.340;2023-07-16T00:35:49;21.60;;;14.40;;
9689;SDS011;4884;42.614;23.340;2023-07-16T00:38:16;16.30;;;14.70;;
9689;SDS011;4884;42.614;23.340;2023-07-16T00:40:44;16.67;;;14.17;;
9689;SDS011;4884;42.614;23.340;2023-07-16T00:43:10;17.17;;;15.17;;
9689;SDS011;4884;42.614;23.340;2023-07-16T00:45:36;16.50;;;14.83;;
9689;SDS011;4884;42.614;23.340;2023-07-16T00:48:02;17.23;;;15.40;;
9689;SDS011;4884;42.614;23.340;2023-07-16T00:50:29;16.20;;;14.73;;
9689;SDS011;4884;42.614;23.340;2023-07-16T00:52:58;15.43;;;14.03;;
9689;SDS011;4884;42.614;23.340;2023-07-16T00:55:28;15.80;;;14.17;;
9689;SDS011;4884;42.614;23.340;2023-07-16T00:57:54;18.10;;;15.17;;
9689;SDS011;4884;42.614;23.340;2023-07-16T01:00:21;20.67;;;15.73;;
9689;SDS011;4884;42.614;23.340;2023-07-16T01:02:46;19.57;;;15.03;;
9689;SDS011;4884;42.614;23.340;2023-07-16T01:05:12;16.93;;;15.33;;
9689;SDS011;4884;42.614;23.340;2023-07-16T01:07:37;17.03;;;14.93;;
9689;SDS011;4884;42.614;23.340;2023-07-16T01:10:06;17.63;;;15.90;;
9689;SDS011;4884;42.614;23.340;2023-07-16T01:12:32;16.50;;;14.80;;
9689;SDS011;4884;42.614;23.340;2023-07-16T01:14:58;16.97;;;15.27;;
9689;SDS011;4884;42.614;23.340;2023-07-16T01:17:24;17.43;;;15.73;;
9689;SDS011;4884;42.614;23.340;2023-07-16T01:19:50;17.10;;;15.37;;
9689;SDS011;4884;42.614;23.340;2023-07-16T01:25:44;19.07;;;15.83;;
9689;SDS011;4884;42.614;23.340;2023-07-16T01:30:51;17.23;;;15.43;;
9689;SDS011;4884;42.614;23.340;2023-07-16T01:33:17;17.23;;;15.40;;
9689;SDS011;4884;42.614;23.340;2023-07-16T01:35:43;17.77;;;16.03;;
9689;SDS011;4884;42.614;23.340;2023-07-16T01:38:09;17.20;;;15.50;;
9689;SDS011;4884;42.614;23.340;2023-07-16T01:40:35;16.40;;;14.87;;
9689;SDS011;4884;42.614;23.340;2023-07-16T01:43:00;18.50;;;16.63;;
9689;SDS011;4884;42.614;23.340;2023-07-16T01:45:26;18.93;;;17.00;;
9689;SDS011;4884;42.614;23.340;2023-07-16T01:50:48;15.77;;;14.37;;
9689;SDS011;4884;42.614;23.340;2023-07-16T01:53:13;17.63;;;15.93;;
9689;SDS011;4884;42.614;23.340;2023-07-16T01:55:38;17.67;;;15.97;;
9689;SDS011;4884;42.614;23.340;2023-07-16T01:58:04;17.77;;;16.10;;
9689;SDS011;4884;42.614;23.340;2023-07-16T02:00:30;19.27;;;16.00;;
9689;SDS011;4884;42.614;23.340;2023-07-16T02:02:56;18.00;;;16.33;;
9689;SDS011;4884;42.614;23.340;2023-07-16T02:05:21;18.20;;;16.43;;
9689;SDS011;4884;42.614;23.340;2023-07-16T02:07:46;18.63;;;16.97;;
9689;SDS011;4884;42.614;23.340;2023-07-16T02:10:12;19.20;;;17.23;;
9689;SDS011;4884;42.614;23.340;2023-07-16T02:12:37;18.00;;;16.47;;
9689;SDS011;4884;42.614;23.340;2023-07-16T02:15:02;18.13;;;15.90;;
9689;SDS011;4884;42.614;23.340;2023-07-16T02:17:28;19.60;;;17.60;;
9689;SDS011;4884;42.614;23.340;2023-07-16T02:19:53;19.57;;;17.73;;
9689;SDS011;4884;42.614;23.340;2023-07-16T02:22:19;18.83;;;17.13;;
9689;SDS011;4884;42.614;23.340;2023-07-16T02:24:45;21.60;;;17.83;;
9689;SDS011;4884;42.614;23.340;2023-07-16T02:27:10;20.80;;;17.83;;
9689;SDS011;4884;42.614;23.340;2023-07-16T02:29:35;18.30;;;16.70;;
9689;SDS011;4884;42.614;23.340;2023-07-16T02:32:01;20.03;;;17.13;;
9689;SDS011;4884;42.614;23.340;2023-07-16T02:34:26;18.50;;;16.60;;
9689;SDS011;4884;42.614;23.340;2023-07-16T02:36:52;19.23;;;16.57;;
9689;SDS011;4884;42.614;23.340;2023-07-16T02:39:17;18.30;;;16.47;;
9689;SDS011;4884;42.614;23.340;2023-07-16T02:41:42;18.23;;;16.37;;
9689;SDS011;4884;42.614;23.340;2023-07-16T02:44:09;19.20;;;17.20;;
9689;SDS011;4884;42.614;23.340;2023-07-16T02:46:34;18.60;;;16.70;;
9689;SDS011;4884;42.614;23.340;2023-07-16T02:49:00;19.13;;;16.97;;
9689;SDS011;4884;42.614;23.340;2023-07-16T02:51:25;19.57;;;17.63;;
9689;SDS011;4884;42.614;23.340;2023-07-16T02:53:51;20.20;;;18.10;;
9689;SDS011;4884;42.614;23.340;2023-07-16T02:56:16;19.90;;;17.90;;
9689;SDS011;4884;42.614;23.340;2023-07-16T02:58:42;20.00;;;17.90;;
9689;SDS011;4884;42.614;23.340;2023-07-16T03:01:07;19.60;;;17.80;;
9689;SDS011;4884;42.614;23.340;2023-07-16T03:03:32;20.13;;;18.33;;
9689;SDS011;4884;42.614;23.340;2023-07-16T03:05:58;20.37;;;18.47;;
9689;SDS011;4884;42.614;23.340;2023-07-16T03:08:23;19.27;;;17.37;;
9689;SDS011;4884;42.614;23.340;2023-07-16T03:10:51;20.80;;;17.97;;
9689;SDS011;4884;42.614;23.340;2023-07-16T03:13:16;19.53;;;17.57;;
9689;SDS011;4884;42.614;23.340;2023-07-16T03:15:42;19.40;;;17.60;;
9689;SDS011;4884;42.614;23.340;2023-07-16T03:18:07;19.67;;;17.67;;
9689;SDS011;4884;42.614;23.340;2023-07-16T03:20:32;21.43;;;18.30;;
9689;SDS011;4884;42.614;23.340;2023-07-16T03:22:58;19.77;;;17.83;;
9689;SDS011;4884;42.614;23.340;2023-07-16T03:25:23;19.30;;;17.40;;
9689;SDS011;4884;42.614;23.340;2023-07-16T03:27:48;20.20;;;18.40;;
9689;SDS011;4884;42.614;23.340;2023-07-16T03:30:14;20.60;;;18.50;;
9689;SDS011;4884;42.614;23.340;2023-07-16T03:32:39;18.97;;;17.03;;
9689;SDS011;4884;42.614;23.340;2023-07-16T03:35:05;20.10;;;18.10;;
9689;SDS011;4884;42.614;23.340;2023-07-16T03:37:30;20.33;;;18.43;;
9689;SDS011;4884;42.614;23.340;2023-07-16T03:39:55;19.53;;;17.53;;
9689;SDS011;4884;42.614;23.340;2023-07-16T03:42:21;20.90;;;18.83;;
9689;SDS011;4884;42.614;23.340;2023-07-16T03:44:47;19.97;;;18.23;;
9689;SDS011;4884;42.614;23.340;2023-07-16T03:47:12;19.73;;;17.57;;
9689;SDS011;4884;42.614;23.340;2023-07-16T03:49:38;19.30;;;17.43;;
9689;SDS011;4884;42.614;23.340;2023-07-16T03:52:03;19.77;;;17.27;;
9689;SDS011;4884;42.614;23.340;2023-07-16T03:54:29;20.17;;;18.00;;
9689;SDS011;4884;42.614;23.340;2023-07-16T03:56:54;18.93;;;17.13;;
9689;SDS011;4884;42.614;23.340;2023-07-16T03:59:20;19.00;;;17.07;;
9689;SDS011;4884;42.614;23.340;2023-07-16T04:01:45;19.77;;;16.80;;
9689;SDS011;4884;42.614;23.340;2023-07-16T04:04:11;19.43;;;17.50;;
9689;SDS011;4884;42.614;23.340;2023-07-16T04:06:36;18.53;;;16.70;;
9689;SDS011;4884;42.614;23.340;2023-07-16T04:09:01;18.93;;;17.07;;
9689;SDS011;4884;42.614;23.340;2023-07-16T04:11:27;17.40;;;15.90;;
9689;SDS011;4884;42.614;23.340;2023-07-16T04:13:52;18.77;;;17.00;;
9689;SDS011;4884;42.614;23.340;2023-07-16T04:16:18;18.50;;;16.80;;
9689;SDS011;4884;42.614;23.340;2023-07-16T04:18:43;19.13;;;17.23;;
9689;SDS011;4884;42.614;23.340;2023-07-16T04:21:09;19.97;;;17.60;;
9689;SDS011;4884;42.614;23.340;2023-07-16T04:23:35;19.37;;;17.27;;
9689;SDS011;4884;42.614;23.340;2023-07-16T04:26:00;20.07;;;17.97;;
9689;SDS011;4884;42.614;23.340;2023-07-16T04:28:26;19.33;;;16.33;;
9689;SDS011;4884;42.614;23.340;2023-07-16T04:30:51;17.37;;;15.53;;
9689;SDS011;4884;42.614;23.340;2023-07-16T04:33:16;18.07;;;16.27;;
9689;SDS011;4884;42.614;23.340;2023-07-16T04:35:43;16.80;;;15.27;;
9689;SDS011;4884;42.614;23.340;2023-07-16T04:38:09;16.60;;;15.10;;
9689;SDS011;4884;42.614;23.340;2023-07-16T04:40:34;16.97;;;15.37;;
9689;SDS011;4884;42.614;23.340;2023-07-16T04:42:59;19.20;;;15.93;;
9689;SDS011;4884;42.614;23.340;2023-07-16T04:45:25;17.13;;;15.63;;
9689;SDS011;4884;42.614;23.340;2023-07-16T04:47:50;17.17;;;15.47;;
9689;SDS011;4884;42.614;23.340;2023-07-16T04:50:15;15.27;;;13.63;;
9689;SDS011;4884;42.614;23.340;2023-07-16T04:52:41;15.67;;;14.10;;
9689;SDS011;4884;42.614;23.340;2023-07-16T04:55:06;15.20;;;13.80;;
9689;SDS011;4884;42.614;23.340;2023-07-16T04:57:32;15.57;;;14.17;;
9689;SDS011;4884;42.614;23.340;2023-07-16T04:59:58;15.03;;;13.60;;
9689;SDS011;4884;42.614;23.340;2023-07-16T05:02:23;15.17;;;13.87;;
9689;SDS011;4884;42.614;23.340;2023-07-16T05:04:49;15.93;;;14.43;;
9689;SDS011;4884;42.614;23.340;2023-07-16T05:07:14;16.93;;;15.37;;
9689;SDS011;4884;42.614;23.340;2023-07-16T05:09:40;17.03;;;15.43;;
9689;SDS011;4884;42.614;23.340;2023-07-16T05:12:06;15.87;;;14.07;;
9689;SDS011;4884;42.614;23.340;2023-07-16T05:14:42;16.07;;;14.57;;
9689;SDS011;4884;42.614;23.340;2023-07-16T05:17:11;16.77;;;15.30;;
9689;SDS011;4884;42.614;23.340;2023-07-16T05:19:36;16.20;;;14.70;;
9689;SDS011;4884;42.614;23.340;2023-07-16T05:22:02;15.45;;;14.05;;
9689;SDS011;4884;42.614;23.340;2023-07-16T05:24:27;14.27;;;12.93;;
9689;SDS011;4884;42.614;23.340;2023-07-16T05:26:53;13.47;;;12.37;;
9689;SDS011;4884;42.614;23.340;2023-07-16T05:29:19;11.63;;;10.37;;
9689;SDS011;4884;42.614;23.340;2023-07-16T05:31:44;12.80;;;11.50;;
9689;SDS011;4884;42.614;23.340;2023-07-16T05:34:11;10.40;;;8.70;;
9689;SDS011;4884;42.614;23.340;2023-07-16T05:36:37;10.73;;;8.97;;
9689;SDS011;4884;42.614;23.340;2023-07-16T05:39:02;10.00;;;9.00;;
9689;SDS011;4884;42.614;23.340;2023-07-16T05:41:27;10.05;;;8.55;;
9689;SDS011;4884;42.614;23.340;2023-07-16T05:43:53;8.73;;;7.78;;
9689;SDS011;4884;42.614;23.340;2023-07-16T05:46:18;11.30;;;8.27;;
9689;SDS011;4884;42.614;23.340;2023-07-16T05:48:43;7.35;;;6.72;;
9689;SDS011;4884;42.614;23.340;2023-07-16T05:51:09;10.00;;;7.65;;
9689;SDS011;4884;42.614;23.340;2023-07-16T05:53:34;7.93;;;7.15;;
9689;SDS011;4884;42.614;23.340;2023-07-16T05:56:00;7.70;;;6.90;;
9689;SDS011;4884;42.614;23.340;2023-07-16T05:58:25;7.95;;;6.70;;
9689;SDS011;4884;42.614;23.340;2023-07-16T06:00:50;8.05;;;7.30;;
9689;SDS011;4884;42.614;23.340;2023-07-16T06:03:16;7.97;;;7.38;;
9689;SDS011;4884;42.614;23.340;2023-07-16T06:05:42;7.72;;;7.03;;
9689;SDS011;4884;42.614;23.340;2023-07-16T06:08:07;17.48;;;14.05;;
9689;SDS011;4884;42.614;23.340;2023-07-16T06:10:33;6.88;;;6.18;;
9689;SDS011;4884;42.614;23.340;2023-07-16T06:12:59;7.57;;;6.88;;
9689;SDS011;4884;42.614;23.340;2023-07-16T06:15:25;8.35;;;7.13;;
9689;SDS011;4884;42.614;23.340;2023-07-16T06:17:50;7.38;;;6.25;;
9689;SDS011;4884;42.614;23.340;2023-07-16T06:20:15;8.20;;;7.25;;
9689;SDS011;4884;42.614;23.340;2023-07-16T06:22:41;8.45;;;7.45;;
9689;SDS011;4884;42.614;23.340;2023-07-16T06:25:06;13.15;;;7.50;;
9689;SDS011;4884;42.614;23.340;2023-07-16T06:27:32;7.60;;;6.97;;
9689;SDS011;4884;42.614;23.340;2023-07-16T06:29:58;8.18;;;7.47;;
9689;SDS011;4884;42.614;23.340;2023-07-16T06:32:23;8.73;;;7.25;;
9689;SDS011;4884;42.614;23.340;2023-07-16T06:34:48;10.23;;;6.10;;
9689;SDS011;4884;42.614;23.340;2023-07-16T06:37:14;7.78;;;7.15;;
9689;SDS011;4884;42.614;23.340;2023-07-16T06:39:39;9.27;;;6.68;;
9689;SDS011;4884;42.614;23.340;2023-07-16T06:42:04;9.82;;;6.97;;
9689;SDS011;4884;42.614;23.340;2023-07-16T06:44:30;6.95;;;6.35;;
9689;SDS011;4884;42.614;23.340;2023-07-16T06:46:55;7.32;;;6.75;;
9689;SDS011;4884;42.614;23.340;2023-07-16T06:49:21;7.40;;;6.00;;
9689;SDS011;4884;42.614;23.340;2023-07-16T06:51:46;6.68;;;5.97;;
9689;SDS011;4884;42.614;23.340;2023-07-16T06:54:12;6.63;;;6.10;;
9689;SDS011;4884;42.614;23.340;2023-07-16T06:56:37;8.38;;;6.30;;
9689;SDS011;4884;42.614;23.340;2023-07-16T06:59:03;9.18;;;6.65;;
9689;SDS011;4884;42.614;23.340;2023-07-16T07:01:28;7.63;;;6.20;;
9689;SDS011;4884;42.614;23.340;2023-07-16T07:03:54;7.20;;;6.50;;
9689;SDS011;4884;42.614;23.340;2023-07-16T07:06:19;7.38;;;6.30;;
9689;SDS011;4884;42.614;23.340;2023-07-16T07:08:46;6.80;;;5.95;;
9689;SDS011;4884;42.614;23.340;2023-07-16T07:11:11;7.63;;;6.47;;
9689;SDS011;4884;42.614;23.340;2023-07-16T07:13:37;7.03;;;6.10;;
9689;SDS011;4884;42.614;23.340;2023-07-16T07:16:02;10.68;;;6.70;;
9689;SDS011;4884;42.614;23.340;2023-07-16T07:18:28;6.95;;;6.35;;
9689;SDS011;4884;42.614;23.340;2023-07-16T07:20:53;7.80;;;6.80;;
9689;SDS011;4884;42.614;23.340;2023-07-16T07:23:18;7.45;;;6.72;;
9689;SDS011;4884;42.614;23.340;2023-07-16T07:25:48;9.75;;;6.00;;
9689;SDS011;4884;42.614;23.340;2023-07-16T07:28:15;7.35;;;6.18;;
9689;SDS011;4884;42.614;23.340;2023-07-16T07:30:40;11.13;;;7.82;;
9689;SDS011;4884;42.614;23.340;2023-07-16T07:33:05;11.40;;;7.38;;
9689;SDS011;4884;42.614;23.340;2023-07-16T07:35:31;8.13;;;7.25;;
9689;SDS011;4884;42.614;23.340;2023-07-16T07:37:56;7.70;;;6.90;;
9689;SDS011;4884;42.614;23.340;2023-07-16T07:40:21;7.97;;;7.28;;
9689;SDS011;4884;42.614;23.340;2023-07-16T07:42:47;9.73;;;7.75;;
9689;SDS011;4884;42.614;23.340;2023-07-16T07:45:12;8.07;;;7.20;;
9689;SDS011;4884;42.614;23.340;2023-07-16T07:47:37;8.32;;;7.60;;
9689;SDS011;4884;42.614;23.340;2023-07-16T07:50:03;9.05;;;8.15;;
9689;SDS011;4884;42.614;23.340;2023-07-16T07:52:28;7.32;;;6.82;;
9689;SDS011;4884;42.614;23.340;2023-07-16T07:54:54;8.43;;;7.60;;
9689;SDS011;4884;42.614;23.340;2023-07-16T07:57:19;11.80;;;8.80;;
9689;SDS011;4884;42.614;23.340;2023-07-16T07:59:45;9.18;;;8.18;;
9689;SDS011;4884;42.614;23.340;2023-07-16T08:02:10;9.63;;;8.07;;
9689;SDS011;4884;42.614;23.340;2023-07-16T08:04:36;9.05;;;8.25;;
9689;SDS011;4884;42.614;23.340;2023-07-16T08:07:01;8.50;;;7.68;;
9689;SDS011;4884;42.614;23.340;2023-07-16T08:09:26;11.88;;;9.00;;
9689;SDS011;4884;42.614;23.340;2023-07-16T08:11:52;11.23;;;8.65;;
9689;SDS011;4884;42.614;23.340;2023-07-16T08:14:17;10.07;;;9.18;;
9689;SDS011;4884;42.614;23.340;2023-07-16T08:16:43;10.13;;;9.07;;
9689;SDS011;4884;42.614;23.340;2023-07-16T08:19:08;9.68;;;8.77;;
9689;SDS011;4884;42.614;23.340;2023-07-16T08:21:34;10.23;;;8.93;;
9689;SDS011;4884;42.614;23.340;2023-07-16T08:24:01;9.90;;;9.00;;
9689;SDS011;4884;42.614;23.340;2023-07-16T08:26:26;9.98;;;8.93;;
9689;SDS011;4884;42.614;23.340;2023-07-16T08:28:51;9.73;;;8.93;;
9689;SDS011;4884;42.614;23.340;2023-07-16T08:31:17;9.73;;;8.90;;
9689;SDS011;4884;42.614;23.340;2023-07-16T08:33:43;9.85;;;8.30;;
9689;SDS011;4884;42.614;23.340;2023-07-16T08:36:09;10.38;;;9.23;;
9689;SDS011;4884;42.614;23.340;2023-07-16T08:38:34;9.25;;;8.55;;
9689;SDS011;4884;42.614;23.340;2023-07-16T08:41:00;17.98;;;9.63;;
9689;SDS011;4884;42.614;23.340;2023-07-16T08:43:25;9.50;;;8.70;;
9689;SDS011;4884;42.614;23.340;2023-07-16T08:45:51;9.48;;;8.50;;
9689;SDS011;4884;42.614;23.340;2023-07-16T08:48:17;9.10;;;8.20;;
9689;SDS011;4884;42.614;23.340;2023-07-16T08:50:46;8.90;;;7.65;;
9689;SDS011;4884;42.614;23.340;2023-07-16T08:53:13;8.88;;;7.88;;
9689;SDS011;4884;42.614;23.340;2023-07-16T08:55:40;9.70;;;8.02;;
9689;SDS011;4884;42.614;23.340;2023-07-16T08:58:06;13.63;;;9.80;;
9689;SDS011;4884;42.614;23.340;2023-07-16T09:00:31;9.70;;;8.70;;
9689;SDS011;4884;42.614;23.340;2023-07-16T09:02:57;12.70;;;9.23;;
9689;SDS011;4884;42.614;23.340;2023-07-16T09:05:22;9.48;;;8.68;;
9689;SDS011;4884;42.614;23.340;2023-07-16T09:07:48;10.18;;;9.15;;
9689;SDS011;4884;42.614;23.340;2023-07-16T09:10:14;10.73;;;9.63;;
9689;SDS011;4884;42.614;23.340;2023-07-16T09:12:43;12.13;;;8.57;;
9689;SDS011;4884;42.614;23.340;2023-07-16T09:15:09;10.52;;;8.48;;
9689;SDS011;4884;42.614;23.340;2023-07-16T09:17:35;11.10;;;9.00;;
9689;SDS011;4884;42.614;23.340;2023-07-16T09:20:03;9.43;;;8.52;;
9689;SDS011;4884;42.614;23.340;2023-07-16T09:22:29;9.13;;;8.23;;
9689;SDS011;4884;42.614;23.340;2023-07-16T09:24:54;13.68;;;8.48;;
9689;SDS011;4884;42.614;23.340;2023-07-16T09:27:27;9.55;;;8.70;;
9689;SDS011;4884;42.614;23.340;2023-07-16T09:29:53;11.48;;;8.70;;
9689;SDS011;4884;42.614;23.340;2023-07-16T09:32:18;9.30;;;8.43;;
9689;SDS011;4884;42.614;23.340;2023-07-16T09:34:44;10.50;;;9.48;;
9689;SDS011;4884;42.614;23.340;2023-07-16T09:37:10;10.40;;;9.27;;
9689;SDS011;4884;42.614;23.340;2023-07-16T09:39:35;9.80;;;9.00;;
9689;SDS011;4884;42.614;23.340;2023-07-16T09:42:02;11.23;;;9.93;;
9689;SDS011;4884;42.614;23.340;2023-07-16T09:44:27;9.35;;;8.60;;
9689;SDS011;4884;42.614;23.340;2023-07-16T09:46:53;9.68;;;8.98;;
9689;SDS011;4884;42.614;23.340;2023-07-16T09:49:18;11.13;;;9.82;;
9689;SDS011;4884;42.614;23.340;2023-07-16T09:51:44;11.68;;;9.55;;
9689;SDS011;4884;42.614;23.340;2023-07-16T09:54:12;9.77;;;8.88;;
9689;SDS011;4884;42.614;23.340;2023-07-16T09:56:48;10.20;;;9.20;;
9689;SDS011;4884;42.614;23.340;2023-07-16T09:59:16;12.65;;;9.45;;
9689;SDS011;4884;42.614;23.340;2023-07-16T10:01:43;10.55;;;9.55;;
9689;SDS011;4884;42.614;23.340;2023-07-16T10:04:16;11.52;;;8.80;;
9689;SDS011;4884;42.614;23.340;2023-07-16T10:06:57;10.00;;;9.20;;
9689;SDS011;4884;42.614;23.340;2023-07-16T10:09:36;9.85;;;8.98;;
9689;SDS011;4884;42.614;23.340;2023-07-16T10:12:13;8.45;;;7.75;;
9689;SDS011;4884;42.614;23.340;2023-07-16T10:14:40;9.38;;;8.48;;
9689;SDS011;4884;42.614;23.340;2023-07-16T10:17:11;12.30;;;8.73;;
9689;SDS011;4884;42.614;23.340;2023-07-16T10:22:37;9.43;;;8.70;;
9689;SDS011;4884;42.614;23.340;2023-07-16T10:25:26;12.48;;;8.88;;
9689;SDS011;4884;42.614;23.340;2023-07-16T10:27:53;9.57;;;8.57;;
9689;SDS011;4884;42.614;23.340;2023-07-16T10:30:19;13.32;;;9.52;;
9689;SDS011;4884;42.614;23.340;2023-07-16T10:32:44;9.52;;;8.57;;
9689;SDS011;4884;42.614;23.340;2023-07-16T10:35:10;9.55;;;8.85;;
9689;SDS011;4884;42.614;23.340;2023-07-16T10:37:36;10.63;;;9.35;;
9689;SDS011;4884;42.614;23.340;2023-07-16T10:40:02;9.52;;;8.80;;
9689;SDS011;4884;42.614;23.340;2023-07-16T10:42:29;12.50;;;8.95;;
9689;SDS011;4884;42.614;23.340;2023-07-16T10:44:57;9.80;;;8.80;;
9689;SDS011;4884;42.614;23.340;2023-07-16T10:49:50;10.57;;;9.50;;
9689;SDS011;4884;42.614;23.340;2023-07-16T10:52:17;15.32;;;9.50;;
9689;SDS011;4884;42.614;23.340;2023-07-16T10:54:43;11.75;;;9.98;;
9689;SDS011;4884;42.614;23.340;2023-07-16T10:57:08;10.43;;;9.20;;
9689;SDS011;4884;42.614;23.340;2023-07-16T10:59:36;11.05;;;9.75;;
9689;SDS011;4884;42.614;23.340;2023-07-16T11:02:02;11.07;;;9.15;;
9689;SDS011;4884;42.614;23.340;2023-07-16T11:04:32;14.32;;;10.18;;
9689;SDS011;4884;42.614;23.340;2023-07-16T11:06:58;11.43;;;9.65;;
9689;SDS011;4884;42.614;23.340;2023-07-16T11:09:24;11.95;;;9.32;;
9689;SDS011;4884;42.614;23.340;2023-07-16T11:11:49;10.77;;;9.68;;
9689;SDS011;4884;42.614;23.340;2023-07-16T11:14:14;11.05;;;9.05;;
9689;SDS011;4884;42.614;23.340;2023-07-16T11:16:40;10.52;;;9.35;;
9689;SDS011;4884;42.614;23.340;2023-07-16T11:19:05;10.48;;;9.50;;
9689;SDS011;4884;42.614;23.340;2023-07-16T11:21:35;14.63;;;9.55;;
9689;SDS011;4884;42.614;23.340;2023-07-16T11:24:07;10.48;;;9.15;;
9689;SDS011;4884;42.614;23.340;2023-07-16T11:26:35;9.93;;;8.63;;
9689;SDS011;4884;42.614;23.340;2023-07-16T11:29:01;10.88;;;9.77;;
9689;SDS011;4884;42.614;23.340;2023-07-16T11:31:26;11.60;;;9.32;;
9689;SDS011;4884;42.614;23.340;2023-07-16T11:33:52;10.57;;;9.63;;
9689;SDS011;4884;42.614;23.340;2023-07-16T11:36:17;11.27;;;9.40;;
9689;SDS011;4884;42.614;23.340;2023-07-16T11:38:42;13.27;;;9.98;;
9689;SDS011;4884;42.614;23.340;2023-07-16T11:41:08;9.55;;;8.75;;
9689;SDS011;4884;42.614;23.340;2023-07-16T11:43:34;12.50;;;10.00;;
9689;SDS011;4884;42.614;23.340;2023-07-16T11:46:05;10.95;;;9.82;;
9689;SDS011;4884;42.614;23.340;2023-07-16T11:48:40;11.60;;;10.57;;
9689;SDS011;4884;42.614;23.340;2023-07-16T11:51:06;12.40;;;9.95;;
9689;SDS011;4884;42.614;23.340;2023-07-16T11:53:31;10.25;;;9.27;;
9689;SDS011;4884;42.614;23.340;2023-07-16T11:55:56;13.45;;;10.23;;
9689;SDS011;4884;42.614;23.340;2023-07-16T11:58:22;12.18;;;9.88;;
9689;SDS011;4884;42.614;23.340;2023-07-16T12:00:47;10.52;;;9.52;;
9689;SDS011;4884;42.614;23.340;2023-07-16T12:03:12;11.95;;;9.45;;
9689;SDS011;4884;42.614;23.340;2023-07-16T12:05:38;10.77;;;9.57;;
9689;SDS011;4884;42.614;23.340;2023-07-16T12:08:03;12.10;;;9.48;;
9689;SDS011;4884;42.614;23.340;2023-07-16T12:10:29;10.73;;;9.63;;
9689;SDS011;4884;42.614;23.340;2023-07-16T12:12:54;9.95;;;8.93;;
9689;SDS011;4884;42.614;23.340;2023-07-16T12:15:19;10.68;;;9.63;;
9689;SDS011;4884;42.614;23.340;2023-07-16T12:17:45;12.50;;;8.98;;
9689;SDS011;4884;42.614;23.340;2023-07-16T12:20:10;10.05;;;9.05;;
9689;SDS011;4884;42.614;23.340;2023-07-16T12:22:36;10.23;;;9.23;;
9689;SDS011;4884;42.614;23.340;2023-07-16T12:25:01;10.35;;;9.35;;
9689;SDS011;4884;42.614;23.340;2023-07-16T12:27:27;9.88;;;9.05;;
9689;SDS011;4884;42.614;23.340;2023-07-16T12:29:52;11.95;;;9.38;;
9689;SDS011;4884;42.614;23.340;2023-07-16T12:32:18;10.00;;;9.10;;
9689;SDS011;4884;42.614;23.340;2023-07-16T12:34:45;10.20;;;9.25;;
9689;SDS011;4884;42.614;23.340;2023-07-16T12:37:10;11.40;;;10.27;;
9689;SDS011;4884;42.614;23.340;2023-07-16T12:39:36;12.10;;;9.88;;
9689;SDS011;4884;42.614;23.340;2023-07-16T12:42:01;10.05;;;9.10;;
9689;SDS011;4884;42.614;23.340;2023-07-16T12:44:26;10.13;;;9.13;;
9689;SDS011;4884;42.614;23.340;2023-07-16T12:46:52;11.65;;;9.00;;
9689;SDS011;4884;42.614;23.340;2023-07-16T12:49:17;9.40;;;8.50;;
9689;SDS011;4884;42.614;23.340;2023-07-16T12:51:43;9.00;;;8.27;;
9689;SDS011;4884;42.614;23.340;2023-07-16T12:54:08;10.38;;;8.80;;
9689;SDS011;4884;42.614;23.340;2023-07-16T12:56:33;14.52;;;8.35;;
9689;SDS011;4884;42.614;23.340;2023-07-16T12:58:59;10.30;;;9.30;;
9689;SDS011;4884;42.614;23.340;2023-07-16T13:01:24;11.20;;;8.70;;
9689;SDS011;4884;42.614;23.340;2023-07-16T13:03:50;10.27;;;9.30;;
9689;SDS011;4884;42.614;23.340;2023-07-16T13:06:15;9.43;;;8.73;;
9689;SDS011;4884;42.614;23.340;2023-07-16T13:08:40;10.70;;;9.60;;
9689;SDS011;4884;42.614;23.340;2023-07-16T13:11:06;9.32;;;8.43;;
9689;SDS011;4884;42.614;23.340;2023-07-16T13:13:31;9.80;;;8.00;;
9689;SDS011;4884;42.614;23.340;2023-07-16T13:15:57;10.93;;;9.68;;
9689;SDS011;4884;42.614;23.340;2023-07-16T13:18:22;13.23;;;9.80;;
9689;SDS011;4884;42.614;23.340;2023-07-16T13:20:48;10.38;;;9.48;;
9689;SDS011;4884;42.614;23.340;2023-07-16T13:23:13;9.73;;;8.73;;
9689;SDS011;4884;42.614;23.340;2023-07-16T13:25:38;10.20;;;9.00;;
9689;SDS011;4884;42.614;23.340;2023-07-16T13:28:07;9.68;;;8.68;;
9689;SDS011;4884;42.614;23.340;2023-07-16T13:30:32;11.10;;;10.02;;
9689;SDS011;4884;42.614;23.340;2023-07-16T13:32:58;11.07;;;9.95;;
9689;SDS011;4884;42.614;23.340;2023-07-16T13:35:24;10.27;;;9.38;;
9689;SDS011;4884;42.614;23.340;2023-07-16T13:37:49;15.00;;;9.65;;
9689;SDS011;4884;42.614;23.340;2023-07-16T13:40:15;11.43;;;8.70;;
9689;SDS011;4884;42.614;23.340;2023-07-16T13:42:41;10.80;;;9.77;;
9689;SDS011;4884;42.614;23.340;2023-07-16T13:45:07;11.68;;;9.50;;
9689;SDS011;4884;42.614;23.340;2023-07-16T13:47:32;10.77;;;9.77;;
9689;SDS011;4884;42.614;23.340;2023-07-16T13:49:58;12.05;;;9.70;;
9689;SDS011;4884;42.614;23.340;2023-07-16T13:52:23;10.38;;;9.32;;
9689;SDS011;4884;42.614;23.340;2023-07-16T13:54:49;12.57;;;9.50;;
9689;SDS011;4884;42.614;23.340;2023-07-16T13:57:14;10.25;;;9.25;;
9689;SDS011;4884;42.614;23.340;2023-07-16T13:59:40;10.25;;;9.45;;
9689;SDS011;4884;42.614;23.340;2023-07-16T14:02:05;12.00;;;9.80;;
9689;SDS011;4884;42.614;23.340;2023-07-16T14:04:31;10.48;;;9.57;;
9689;SDS011;4884;42.614;23.340;2023-07-16T14:06:56;9.93;;;8.68;;
9689;SDS011;4884;42.614;23.340;2023-07-16T14:09:22;11.10;;;10.20;;
9689;SDS011;4884;42.614;23.340;2023-07-16T14:11:48;10.75;;;9.75;;
9689;SDS011;4884;42.614;23.340;2023-07-16T14:14:13;11.05;;;9.90;;
9689;SDS011;4884;42.614;23.340;2023-07-16T14:16:39;10.82;;;9.73;;
9689;SDS011;4884;42.614;23.340;2023-07-16T14:19:05;14.50;;;10.00;;
9689;SDS011;4884;42.614;23.340;2023-07-16T14:21:31;10.80;;;9.73;;
9689;SDS011;4884;42.614;23.340;2023-07-16T14:23:56;11.77;;;10.57;;
9689;SDS011;4884;42.614;23.340;2023-07-16T14:26:21;11.32;;;10.20;;
9689;SDS011;4884;42.614;23.340;2023-07-16T14:28:47;13.65;;;9.57;;
9689;SDS011;4884;42.614;23.340;2023-07-16T14:31:12;11.07;;;9.95;;
9689;SDS011;4884;42.614;23.340;2023-07-16T14:33:38;10.65;;;9.73;;
9689;SDS011;4884;42.614;23.340;2023-07-16T14:36:04;11.88;;;10.73;;
9689;SDS011;4884;42.614;23.340;2023-07-16T14:38:29;11.45;;;10.27;;
9689;SDS011;4884;42.614;23.340;2023-07-16T14:40:55;10.63;;;9.50;;
9689;SDS011;4884;42.614;23.340;2023-07-16T14:43:20;14.52;;;11.52;;
9689;SDS011;4884;42.614;23.340;2023-07-16T14:45:46;11.52;;;10.52;;
9689;SDS011;4884;42.614;23.340;2023-07-16T14:48:11;11.13;;;10.13;;
9689;SDS011;4884;42.614;23.340;2023-07-16T14:50:36;10.30;;;9.13;;
9689;SDS011;4884;42.614;23.340;2023-07-16T14:53:02;11.32;;;10.32;;